sensor_id;sensor_type;location;lat;lon;timestamp;pressure;altitude;pressure_sealevel;temperature;humidity
46722;BME280;32455;43.430;23.136;2023-03-05T00:00:20;97760.00;;;1.61;100.00
46722;BME280;32455;43.430;23.136;2023-03-05T00:03:06;97758.13;;;1.70;100.00
46722;BME280;32455;43.430;23.136;2023-03-05T00:05:55;97776.09;;;1.60;100.00
46722;BME280;32455;43.430;23.136;2023-03-05T00:08:41;97771.84;;;1.50;100.00
46722;BME280;32455;43.430;23.136;2023-03-05T00:11:27;97761.72;;;1.23;100.00
46722;BME280;32455;43.430;23.136;2023-03-05T00:14:17;97761.25;;;1.19;100.00
46722;BME280;32455;43.430;23.136;2023-03-05T00:17:03;97744.31;;;0.97;100.00
46722;BME280;32455;43.430;23.136;2023-03-05T00:19:48;97756.72;;;1.28;100.00
46722;BME280;32455;43.430;23.136;2023-03-05T00:22:34;97736.84;;;1.09;100.00
46722;BME280;32455;43.430;23.136;2023-03-05T00:25:19;97751.56;;;1.35;100.00
46722;BME280;32455;43.430;23.136;2023-03-05T00:28:06;97745.94;;;1.38;100.00
46722;BME280;32455;43.430;23.136;2023-03-05T00:30:51;97731.03;;;1.37;100.00
46722;BME280;32455;43.430;23.136;2023-03-05T00:33:37;97744.50;;;1.27;100.00
46722;BME280;32455;43.430;23.136;2023-03-05T00:36:23;97740.66;;;1.38;100.00
46722;BME280;32455;43.430;23.136;2023-03-05T00:39:10;97743.88;;;1.25;100.00
46722;BME280;32455;43.430;23.136;2023-03-05T00:41:56;97737.56;;;1.26;100.00
46722;BME280;32455;43.430;23.136;2023-03-05T00:44:41;97732.41;;;1.02;100.00
46722;BME280;32455;43.430;23.136;2023-03-05T00:47:26;97736.69;;;1.03;100.00
46722;BME280;32455;43.430;23.136;2023-03-05T00:50:12;97728.84;;;1.17;100.00
46722;BME280;32455;43.430;23.136;2023-03-05T00:52:58;97721.50;;;0.96;100.00
46722;BME280;32455;43.430;23.136;2023-03-05T00:55:43;97722.91;;;1.15;100.00
46722;BME280;32455;43.430;23.136;2023-03-05T00:58:29;97717.50;;;1.09;100.00
46722;BME280;32455;43.430;23.136;2023-03-05T01:01:14;97722.25;;;1.13;100.00
46722;BME280;32455;43.430;23.136;2023-03-05T01:04:00;97710.56;;;1.08;100.00
46722;BME280;32455;43.430;23.136;2023-03-05T01:06:45;97709.06;;;1.05;100.00
46722;BME280;32455;43.430;23.136;2023-03-05T01:09:31;97713.09;;;1.24;100.00
46722;BME280;32455;43.430;23.136;2023-03-05T01:12:16;97713.47;;;1.44;100.00
46722;BME280;32455;43.430;23.136;2023-03-05T01:15:03;97714.91;;;1.23;100.00
46722;BME280;32455;43.430;23.136;2023-03-05T01:17:49;97706.75;;;1.02;100.00
46722;BME280;32455;43.430;23.136;2023-03-05T01:20:34;97708.94;;;1.30;100.00
46722;BME280;32455;43.430;23.136;2023-03-05T01:23:19;97700.03;;;1.45;100.00
46722;BME280;32455;43.430;23.136;2023-03-05T01:26:05;97707.34;;;1.66;100.00
46722;BME280;32455;43.430;23.136;2023-03-05T01:28:51;97707.03;;;1.61;100.00
46722;BME280;32455;43.430;23.136;2023-03-05T01:31:36;97709.91;;;1.74;100.00
46722;BME280;32455;43.430;23.136;2023-03-05T01:34:22;97705.28;;;1.77;100.00
46722;BME280;32455;43.430;23.136;2023-03-05T01:37:07;97712.91;;;1.94;100.00
46722;BME280;32455;43.430;23.136;2023-03-05T01:39:53;97710.88;;;1.82;100.00
46722;BME280;32455;43.430;23.136;2023-03-05T01:42:38;97708.06;;;1.60;100.00
46722;BME280;32455;43.430;23.136;2023-03-05T01:45:24;97697.03;;;1.48;100.00
46722;BME280;32455;43.430;23.136;2023-03-05T01:48:10;97701.66;;;1.55;100.00
46722;BME280;32455;43.430;23.136;2023-03-05T01:50:55;97711.19;;;1.64;100.00
46722;BME280;32455;43.430;23.136;2023-03-05T01:53:40;97710.34;;;1.63;100.00
46722;BME280;32455;43.430;23.136;2023-03-05T01:56:28;97711.88;;;1.58;100.00
46722;BME280;32455;43.430;23.136;2023-03-05T01:59:14;97702.25;;;2.17;100.00
46722;BME280;32455;43.430;23.136;2023-03-05T02:02:00;97708.13;;;2.42;100.00
46722;BME280;32455;43.430;23.136;2023-03-05T02:04:56;97711.50;;;2.51;100.00
46722;BME280;32455;43.430;23.136;2023-03-05T02:07:43;97711.50;;;2.36;100.00
46722;BME280;32455;43.430;23.136;2023-03-05T02:10:33;97705.13;;;2.45;100.00
46722;BME280;32455;43.430;23.136;2023-03-05T02:13:22;97712.41;;;2.43;100.00
46722;BME280;32455;43.430;23.136;2023-03-05T02:16:08;97711.41;;;2.30;100.00
46722;BME280;32455;43.430;23.136;2023-03-05T02:18:53;97703.44;;;2.15;100.00
46722;BME280;32455;43.430;23.136;2023-03-05T02:21:44;97705.38;;;2.65;100.00
46722;BME280;32455;43.430;23.136;2023-03-05T02:24:35;97707.72;;;2.90;100.00
46722;BME280;32455;43.430;23.136;2023-03-05T02:27:24;97714.69;;;2.91;100.00
46722;BME280;32455;43.430;23.136;2023-03-05T02:30:19;97713.88;;;3.26;100.00
46722;BME280;32455;43.430;23.136;2023-03-05T02:33:05;97699.91;;;3.18;100.00
46722;BME280;32455;43.430;23.136;2023-03-05T02:35:50;97709.78;;;3.45;100.00
46722;BME280;32455;43.430;23.136;2023-03-05T02:38:35;97713.28;;;3.67;100.00
46722;BME280;32455;43.430;23.136;2023-03-05T02:41:20;97712.91;;;3.70;100.00
46722;BME280;32455;43.430;23.136;2023-03-05T02:44:06;97713.84;;;3.63;100.00
46722;BME280;32455;43.430;23.136;2023-03-05T02:46:51;97716.88;;;3.60;100.00
46722;BME280;32455;43.430;23.136;2023-03-05T02:49:37;97714.94;;;3.47;100.00
46722;BME280;32455;43.430;23.136;2023-03-05T02:52:23;97708.66;;;3.55;100.00
46722;BME280;32455;43.430;23.136;2023-03-05T02:55:09;97715.63;;;3.77;100.00
46722;BME280;32455;43.430;23.136;2023-03-05T02:57:55;97709.41;;;3.91;100.00
46722;BME280;32455;43.430;23.136;2023-03-05T03:00:40;97701.13;;;3.80;100.00
46722;BME280;32455;43.430;23.136;2023-03-05T03:03:25;97688.53;;;3.67;100.00
46722;BME280;32455;43.430;23.136;2023-03-05T03:06:11;97691.72;;;3.77;100.00
46722;BME280;32455;43.430;23.136;2023-03-05T03:08:56;97708.53;;;3.84;100.00
46722;BME280;32455;43.430;23.136;2023-03-05T03:11:42;97704.97;;;3.98;100.00
46722;BME280;32455;43.430;23.136;2023-03-05T03:14:33;97705.41;;;4.02;100.00
46722;BME280;32455;43.430;23.136;2023-03-05T03:17:22;97709.84;;;3.95;100.00
46722;BME280;32455;43.430;23.136;2023-03-05T03:20:10;97705.16;;;3.97;100.00
46722;BME280;32455;43.430;23.136;2023-03-05T03:22:57;97704.84;;;3.85;100.00
46722;BME280;32455;43.430;23.136;2023-03-05T03:25:43;97707.25;;;3.80;100.00
46722;BME280;32455;43.430;23.136;2023-03-05T03:28:29;97707.47;;;3.79;100.00
46722;BME280;32455;43.430;23.136;2023-03-05T03:31:14;97696.50;;;3.67;100.00
46722;BME280;32455;43.430;23.136;2023-03-05T03:33:59;97700.22;;;3.72;100.00
46722;BME280;32455;43.430;23.136;2023-03-05T03:36:46;97687.34;;;3.69;100.00
46722;BME280;32455;43.430;23.136;2023-03-05T03:39:32;97696.25;;;3.83;100.00
46722;BME280;32455;43.430;23.136;2023-03-05T03:42:19;97702.31;;;3.98;100.00
46722;BME280;32455;43.430;23.136;2023-03-05T03:45:04;97687.56;;;3.96;100.00
46722;BME280;32455;43.430;23.136;2023-03-05T03:47:50;97685.44;;;4.13;97.99
46722;BME280;32455;43.430;23.136;2023-03-05T03:50:42;97697.00;;;4.26;96.43
46722;BME280;32455;43.430;23.136;2023-03-05T03:53:26;97689.00;;;4.20;95.53
46722;BME280;32455;43.430;23.136;2023-03-05T03:56:12;97691.38;;;4.15;95.63
46722;BME280;32455;43.430;23.136;2023-03-05T03:58:57;97699.94;;;4.38;93.40
46722;BME280;32455;43.430;23.136;2023-03-05T04:01:42;97697.28;;;4.38;94.55
46722;BME280;32455;43.430;23.136;2023-03-05T04:04:28;97705.22;;;4.32;94.68
46722;BME280;32455;43.430;23.136;2023-03-05T04:07:14;97712.91;;;4.20;96.49
46722;BME280;32455;43.430;23.136;2023-03-05T04:09:59;97713.38;;;4.30;94.42
46722;BME280;32455;43.430;23.136;2023-03-05T04:12:45;97694.81;;;4.09;93.62
46722;BME280;32455;43.430;23.136;2023-03-05T04:15:31;97705.03;;;4.05;95.63
46722;BME280;32455;43.430;23.136;2023-03-05T04:18:16;97701.06;;;3.94;95.52
46722;BME280;32455;43.430;23.136;2023-03-05T04:21:02;97716.78;;;4.17;92.22
46722;BME280;32455;43.430;23.136;2023-03-05T04:23:47;97706.94;;;4.11;94.43
46722;BME280;32455;43.430;23.136;2023-03-05T04:26:33;97701.88;;;3.95;96.19
46722;BME280;32455;43.430;23.136;2023-03-05T04:29:18;97704.72;;;3.93;95.48
46722;BME280;32455;43.430;23.136;2023-03-05T04:32:04;97703.81;;;4.08;93.49
46722;BME280;32455;43.430;23.136;2023-03-05T04:34:50;97696.66;;;4.08;94.28
46722;BME280;32455;43.430;23.136;2023-03-05T04:37:36;97703.09;;;4.20;93.87
46722;BME280;32455;43.430;23.136;2023-03-05T04:40:21;97697.97;;;4.19;91.66
46722;BME280;32455;43.430;23.136;2023-03-05T04:43:06;97692.31;;;4.29;90.76
46722;BME280;32455;43.430;23.136;2023-03-05T04:45:54;97685.34;;;4.27;90.97
46722;BME280;32455;43.430;23.136;2023-03-05T04:48:39;97687.41;;;4.32;90.70
46722;BME280;32455;43.430;23.136;2023-03-05T04:51:25;97682.59;;;4.14;92.09
46722;BME280;32455;43.430;23.136;2023-03-05T04:54:11;97685.88;;;4.16;91.92
46722;BME280;32455;43.430;23.136;2023-03-05T04:56:58;97675.03;;;4.11;92.33
46722;BME280;32455;43.430;23.136;2023-03-05T04:59:44;97683.38;;;4.08;91.52
46722;BME280;32455;43.430;23.136;2023-03-05T05:02:29;97696.16;;;3.98;93.46
46722;BME280;32455;43.430;23.136;2023-03-05T05:05:20;97699.28;;;3.80;95.52
46722;BME280;32455;43.430;23.136;2023-03-05T05:08:06;97690.72;;;3.57;96.16
46722;BME280;32455;43.430;23.136;2023-03-05T05:11:12;97690.88;;;3.34;99.45
46722;BME280;32455;43.430;23.136;2023-03-05T05:13:58;97698.28;;;3.02;100.00
46722;BME280;32455;43.430;23.136;2023-03-05T05:16:44;97685.88;;;2.88;100.00
46722;BME280;32455;43.430;23.136;2023-03-05T05:19:31;97686.50;;;3.05;100.00
46722;BME280;32455;43.430;23.136;2023-03-05T05:22:16;97689.53;;;3.23;100.00
46722;BME280;32455;43.430;23.136;2023-03-05T05:25:02;97686.78;;;3.53;97.61
46722;BME280;32455;43.430;23.136;2023-03-05T05:27:49;97678.56;;;3.47;97.16
46722;BME280;32455;43.430;23.136;2023-03-05T05:30:34;97679.38;;;3.48;97.13
46722;BME280;32455;43.430;23.136;2023-03-05T05:33:20;97693.38;;;3.57;97.36
46722;BME280;32455;43.430;23.136;2023-03-05T05:36:09;97700.31;;;3.58;98.41
46722;BME280;32455;43.430;23.136;2023-03-05T05:38:55;97680.00;;;3.50;99.06
46722;BME280;32455;43.430;23.136;2023-03-05T05:41:40;97693.63;;;3.62;98.70
46722;BME280;32455;43.430;23.136;2023-03-05T05:44:26;97695.06;;;3.64;99.19
46722;BME280;32455;43.430;23.136;2023-03-05T05:47:13;97709.91;;;3.80;98.43
46722;BME280;32455;43.430;23.136;2023-03-05T05:49:59;97704.03;;;3.85;96.36
46722;BME280;32455;43.430;23.136;2023-03-05T05:52:44;97697.56;;;3.94;95.39
46722;BME280;32455;43.430;23.136;2023-03-05T05:55:28;97709.34;;;4.34;92.93
46722;BME280;32455;43.430;23.136;2023-03-05T05:58:13;97712.88;;;4.48;92.08
46722;BME280;32455;43.430;23.136;2023-03-05T06:00:58;97711.28;;;4.53;91.09
46722;BME280;32455;43.430;23.136;2023-03-05T06:03:44;97709.84;;;4.51;91.74
46722;BME280;32455;43.430;23.136;2023-03-05T06:06:29;97721.19;;;4.66;91.00
46722;BME280;32455;43.430;23.136;2023-03-05T06:09:15;97717.38;;;4.75;91.24
46722;BME280;32455;43.430;23.136;2023-03-05T06:12:01;97729.72;;;4.90;89.66
46722;BME280;32455;43.430;23.136;2023-03-05T06:14:46;97727.72;;;4.98;90.48
46722;BME280;32455;43.430;23.136;2023-03-05T06:17:32;97736.38;;;5.14;89.48
46722;BME280;32455;43.430;23.136;2023-03-05T06:20:19;97733.34;;;5.23;90.90
46722;BME280;32455;43.430;23.136;2023-03-05T06:23:04;97736.63;;;5.19;91.53
46722;BME280;32455;43.430;23.136;2023-03-05T06:25:50;97735.19;;;5.30;90.53
46722;BME280;32455;43.430;23.136;2023-03-05T06:28:35;97729.91;;;5.36;89.53
46722;BME280;32455;43.430;23.136;2023-03-05T06:31:23;97718.03;;;5.45;89.60
46722;BME280;32455;43.430;23.136;2023-03-05T06:34:11;97727.53;;;5.61;89.37
46722;BME280;32455;43.430;23.136;2023-03-05T06:36:56;97718.28;;;5.57;91.00
46722;BME280;32455;43.430;23.136;2023-03-05T06:39:42;97722.41;;;5.73;89.04
46722;BME280;32455;43.430;23.136;2023-03-05T06:42:27;97717.50;;;5.70;88.90
46722;BME280;32455;43.430;23.136;2023-03-05T06:45:13;97723.66;;;5.84;88.83
46722;BME280;32455;43.430;23.136;2023-03-05T06:47:58;97725.72;;;5.88;87.38
46722;BME280;32455;43.430;23.136;2023-03-05T06:50:43;97728.00;;;6.05;88.29
46722;BME280;32455;43.430;23.136;2023-03-05T06:53:29;97732.13;;;6.14;86.78
46722;BME280;32455;43.430;23.136;2023-03-05T06:56:14;97744.41;;;6.28;86.83
46722;BME280;32455;43.430;23.136;2023-03-05T06:59:00;97738.91;;;6.30;83.62
46722;BME280;32455;43.430;23.136;2023-03-05T07:01:46;97731.06;;;6.41;85.07
46722;BME280;32455;43.430;23.136;2023-03-05T07:04:31;97718.97;;;6.39;83.26
46722;BME280;32455;43.430;23.136;2023-03-05T07:07:17;97717.72;;;6.48;82.96
46722;BME280;32455;43.430;23.136;2023-03-05T07:10:03;97738.03;;;6.69;83.54
46722;BME280;32455;43.430;23.136;2023-03-05T07:12:51;97733.47;;;6.83;82.94
46722;BME280;32455;43.430;23.136;2023-03-05T07:15:40;97715.19;;;6.80;84.14
46722;BME280;32455;43.430;23.136;2023-03-05T07:18:25;97724.19;;;6.92;83.74
46722;BME280;32455;43.430;23.136;2023-03-05T07:21:14;97733.78;;;7.13;83.41
46722;BME280;32455;43.430;23.136;2023-03-05T07:24:01;97729.63;;;7.23;82.58
46722;BME280;32455;43.430;23.136;2023-03-05T07:26:47;97724.84;;;7.32;80.32
46722;BME280;32455;43.430;23.136;2023-03-05T07:29:32;97734.81;;;7.57;79.55
46722;BME280;32455;43.430;23.136;2023-03-05T07:32:18;97744.13;;;7.86;75.41
46722;BME280;32455;43.430;23.136;2023-03-05T07:35:04;97729.28;;;7.90;68.82
46722;BME280;32455;43.430;23.136;2023-03-05T07:37:50;97739.09;;;8.27;62.33
46722;BME280;32455;43.430;23.136;2023-03-05T07:40:36;97742.09;;;8.38;57.22
46722;BME280;32455;43.430;23.136;2023-03-05T07:43:21;97732.56;;;8.67;55.46
46722;BME280;32455;43.430;23.136;2023-03-05T07:46:08;97744.78;;;8.63;54.87
46722;BME280;32455;43.430;23.136;2023-03-05T07:48:55;97752.91;;;8.93;50.86
46722;BME280;32455;43.430;23.136;2023-03-05T07:51:40;97744.72;;;9.06;55.41
46722;BME280;32455;43.430;23.136;2023-03-05T07:54:25;97746.53;;;9.12;52.31
46722;BME280;32455;43.430;23.136;2023-03-05T07:57:11;97731.88;;;8.96;49.92
46722;BME280;32455;43.430;23.136;2023-03-05T07:59:57;97741.53;;;9.16;54.64
46722;BME280;32455;43.430;23.136;2023-03-05T08:02:43;97735.03;;;9.23;56.07
46722;BME280;32455;43.430;23.136;2023-03-05T08:05:28;97721.34;;;9.32;54.72
46722;BME280;32455;43.430;23.136;2023-03-05T08:08:14;97744.75;;;9.54;53.87
46722;BME280;32455;43.430;23.136;2023-03-05T08:11:09;97728.41;;;9.44;55.04
46722;BME280;32455;43.430;23.136;2023-03-05T08:13:55;97748.28;;;9.55;54.12
46722;BME280;32455;43.430;23.136;2023-03-05T08:16:43;97742.25;;;9.41;52.53
46722;BME280;32455;43.430;23.136;2023-03-05T08:19:28;97737.59;;;9.67;54.58
46722;BME280;32455;43.430;23.136;2023-03-05T08:22:14;97738.16;;;9.39;51.90
46722;BME280;32455;43.430;23.136;2023-03-05T08:25:02;97728.81;;;9.30;53.37
46722;BME280;32455;43.430;23.136;2023-03-05T08:27:48;97739.88;;;9.33;52.04
46722;BME280;32455;43.430;23.136;2023-03-05T08:30:34;97734.81;;;9.43;52.60
46722;BME280;32455;43.430;23.136;2023-03-05T08:33:19;97727.44;;;9.39;55.43
46722;BME280;32455;43.430;23.136;2023-03-05T08:36:06;97747.00;;;9.88;54.80
46722;BME280;32455;43.430;23.136;2023-03-05T08:38:52;97734.13;;;9.78;53.64
46722;BME280;32455;43.430;23.136;2023-03-05T08:41:37;97728.31;;;9.81;53.17
46722;BME280;32455;43.430;23.136;2023-03-05T08:44:23;97736.19;;;9.94;53.68
46722;BME280;32455;43.430;23.136;2023-03-05T08:47:08;97736.19;;;10.06;53.27
46722;BME280;32455;43.430;23.136;2023-03-05T08:49:54;97725.97;;;9.73;51.21
46722;BME280;32455;43.430;23.136;2023-03-05T08:52:44;97706.00;;;9.81;53.53
46722;BME280;32455;43.430;23.136;2023-03-05T08:55:29;97720.72;;;9.78;53.26
46722;BME280;32455;43.430;23.136;2023-03-05T08:58:15;97722.22;;;9.74;51.71
46722;BME280;32455;43.430;23.136;2023-03-05T09:01:00;97720.75;;;9.90;53.36
46722;BME280;32455;43.430;23.136;2023-03-05T09:03:45;97723.44;;;9.90;52.41
46722;BME280;32455;43.430;23.136;2023-03-05T09:06:30;97724.25;;;9.90;52.48
46722;BME280;32455;43.430;23.136;2023-03-05T09:09:15;97726.28;;;9.65;50.16
46722;BME280;32455;43.430;23.136;2023-03-05T09:12:05;97723.03;;;9.74;51.05
46722;BME280;32455;43.430;23.136;2023-03-05T09:14:53;97715.19;;;10.03;52.92
46722;BME280;32455;43.430;23.136;2023-03-05T09:17:38;97711.56;;;10.09;51.79
46722;BME280;32455;43.430;23.136;2023-03-05T09:20:25;97716.25;;;10.14;51.11
46722;BME280;32455;43.430;23.136;2023-03-05T09:23:11;97712.34;;;10.28;52.45
46722;BME280;32455;43.430;23.136;2023-03-05T09:25:56;97714.75;;;9.76;50.02
46722;BME280;32455;43.430;23.136;2023-03-05T09:28:41;97706.75;;;9.88;51.90
46722;BME280;32455;43.430;23.136;2023-03-05T09:31:26;97702.13;;;10.18;51.62
46722;BME280;32455;43.430;23.136;2023-03-05T09:34:12;97691.41;;;10.07;49.78
46722;BME280;32455;43.430;23.136;2023-03-05T09:36:56;97694.94;;;10.42;51.17
46722;BME280;32455;43.430;23.136;2023-03-05T09:39:41;97698.81;;;10.46;52.78
46722;BME280;32455;43.430;23.136;2023-03-05T09:45:42;97686.91;;;10.42;53.96
46722;BME280;32455;43.430;23.136;2023-03-05T09:51:36;97682.22;;;10.38;51.89
46722;BME280;32455;43.430;23.136;2023-03-05T09:54:25;97673.78;;;10.22;52.00
46722;BME280;32455;43.430;23.136;2023-03-05T09:57:23;97667.97;;;10.49;51.13
46722;BME280;32455;43.430;23.136;2023-03-05T10:00:45;97664.47;;;10.37;51.81
46722;BME280;32455;43.430;23.136;2023-03-05T10:06:42;97666.81;;;10.33;52.23
46722;BME280;32455;43.430;23.136;2023-03-05T10:12:46;97653.97;;;10.35;51.72
46722;BME280;32455;43.430;23.136;2023-03-05T10:18:27;97640.88;;;10.39;51.27
46722;BME280;32455;43.430;23.136;2023-03-05T10:21:37;97643.69;;;10.44;49.28
46722;BME280;32455;43.430;23.136;2023-03-05T10:24:57;97626.84;;;10.48;50.62
46722;BME280;32455;43.430;23.136;2023-03-05T10:28:01;97624.84;;;10.67;51.32
46722;BME280;32455;43.430;23.136;2023-03-05T10:46:03;97592.78;;;10.25;51.21
46722;BME280;32455;43.430;23.136;2023-03-05T10:49:06;97598.16;;;10.89;52.77
46722;BME280;32455;43.430;23.136;2023-03-05T10:52:09;97593.69;;;10.66;49.93
46722;BME280;32455;43.430;23.136;2023-03-05T10:54:59;97583.56;;;10.85;51.29
46722;BME280;32455;43.430;23.136;2023-03-05T10:57:45;97576.56;;;10.84;50.79
46722;BME280;32455;43.430;23.136;2023-03-05T11:00:31;97574.03;;;10.66;50.08
46722;BME280;32455;43.430;23.136;2023-03-05T11:03:18;97580.38;;;10.60;50.22
46722;BME280;32455;43.430;23.136;2023-03-05T11:06:04;97574.16;;;10.71;50.40
46722;BME280;32455;43.430;23.136;2023-03-05T11:08:49;97554.00;;;10.45;50.81
46722;BME280;32455;43.430;23.136;2023-03-05T11:11:34;97550.53;;;10.73;51.03
46722;BME280;32455;43.430;23.136;2023-03-05T11:14:26;97561.66;;;11.05;49.15
46722;BME280;32455;43.430;23.136;2023-03-05T11:17:26;97556.94;;;10.84;48.84
46722;BME280;32455;43.430;23.136;2023-03-05T11:20:32;97556.41;;;10.98;49.92
46722;BME280;32455;43.430;23.136;2023-03-05T11:23:22;97534.41;;;11.01;49.95
46722;BME280;32455;43.430;23.136;2023-03-05T11:31:38;97544.50;;;10.94;49.70
46722;BME280;32455;43.430;23.136;2023-03-05T11:34:29;97541.09;;;10.99;50.46
46722;BME280;32455;43.430;23.136;2023-03-05T11:37:28;97526.78;;;11.10;49.70
46722;BME280;32455;43.430;23.136;2023-03-05T11:40:21;97521.00;;;11.18;51.58
46722;BME280;32455;43.430;23.136;2023-03-05T11:43:17;97514.09;;;11.22;50.21
46722;BME280;32455;43.430;23.136;2023-03-05T11:46:03;97504.22;;;11.28;49.52
46722;BME280;32455;43.430;23.136;2023-03-05T11:48:49;97484.00;;;11.09;49.27
46722;BME280;32455;43.430;23.136;2023-03-05T11:51:52;97498.59;;;11.46;47.22
46722;BME280;32455;43.430;23.136;2023-03-05T11:55:31;97492.66;;;11.27;46.13
46722;BME280;32455;43.430;23.136;2023-03-05T12:01:16;97495.56;;;11.26;49.31
46722;BME280;32455;43.430;23.136;2023-03-05T12:04:02;97493.53;;;11.16;49.96
46722;BME280;32455;43.430;23.136;2023-03-05T12:06:52;97486.88;;;11.36;49.51
46722;BME280;32455;43.430;23.136;2023-03-05T12:09:45;97495.91;;;11.29;49.68
46722;BME280;32455;43.430;23.136;2023-03-05T12:13:05;97484.72;;;11.04;48.55
46722;BME280;32455;43.430;23.136;2023-03-05T12:16:02;97495.81;;;11.24;46.58
46722;BME280;32455;43.430;23.136;2023-03-05T12:19:09;97490.66;;;10.89;46.63
46722;BME280;32455;43.430;23.136;2023-03-05T12:21:57;97477.38;;;10.99;48.93
46722;BME280;32455;43.430;23.136;2023-03-05T12:24:43;97473.09;;;11.15;48.28
46722;BME280;32455;43.430;23.136;2023-03-05T12:27:34;97480.69;;;11.18;47.98
46722;BME280;32455;43.430;23.136;2023-03-05T12:33:42;97474.06;;;10.92;47.93
46722;BME280;32455;43.430;23.136;2023-03-05T12:36:34;97458.66;;;11.04;49.88
46722;BME280;32455;43.430;23.136;2023-03-05T12:50:47;97436.41;;;10.92;50.31
46722;BME280;32455;43.430;23.136;2023-03-05T12:53:33;97448.53;;;10.95;48.47
46722;BME280;32455;43.430;23.136;2023-03-05T12:56:21;97450.22;;;10.67;48.82
46722;BME280;32455;43.430;23.136;2023-03-05T12:59:10;97454.38;;;10.75;47.83
46722;BME280;32455;43.430;23.136;2023-03-05T13:01:59;97453.91;;;10.49;49.08
46722;BME280;32455;43.430;23.136;2023-03-05T13:04:47;97440.28;;;10.68;48.65
46722;BME280;32455;43.430;23.136;2023-03-05T13:07:33;97441.63;;;10.53;47.84
46722;BME280;32455;43.430;23.136;2023-03-05T13:10:27;97434.63;;;10.52;49.80
46722;BME280;32455;43.430;23.136;2023-03-05T13:13:13;97451.63;;;10.30;49.52
46722;BME280;32455;43.430;23.136;2023-03-05T13:16:00;97450.75;;;10.00;50.46
46722;BME280;32455;43.430;23.136;2023-03-05T13:18:51;97449.06;;;10.35;50.87
46722;BME280;32455;43.430;23.136;2023-03-05T13:21:37;97432.38;;;10.33;51.17
46722;BME280;32455;43.430;23.136;2023-03-05T13:24:23;97436.97;;;10.49;50.71
46722;BME280;32455;43.430;23.136;2023-03-05T13:27:41;97444.97;;;10.20;50.41
46722;BME280;32455;43.430;23.136;2023-03-05T13:30:27;97432.84;;;10.30;50.41
46722;BME280;32455;43.430;23.136;2023-03-05T13:33:16;97443.00;;;10.27;52.22
46722;BME280;32455;43.430;23.136;2023-03-05T13:36:03;97430.25;;;10.23;50.06
46722;BME280;32455;43.430;23.136;2023-03-05T13:38:49;97445.91;;;10.38;50.68
46722;BME280;32455;43.430;23.136;2023-03-05T13:41:35;97440.34;;;10.04;50.56
46722;BME280;32455;43.430;23.136;2023-03-05T13:44:20;97427.50;;;10.06;50.70
46722;BME280;32455;43.430;23.136;2023-03-05T13:47:16;97424.44;;;10.14;50.37
46722;BME280;32455;43.430;23.136;2023-03-05T13:50:05;97428.38;;;10.35;51.58
46722;BME280;32455;43.430;23.136;2023-03-05T13:52:50;97435.88;;;10.33;49.71
46722;BME280;32455;43.430;23.136;2023-03-05T13:55:37;97435.78;;;10.16;50.53
46722;BME280;32455;43.430;23.136;2023-03-05T13:58:45;97431.59;;;10.49;50.51
46722;BME280;32455;43.430;23.136;2023-03-05T14:01:42;97429.81;;;10.14;48.73
46722;BME280;32455;43.430;23.136;2023-03-05T14:04:40;97436.03;;;10.03;49.46
46722;BME280;32455;43.430;23.136;2023-03-05T14:07:38;97426.94;;;10.04;50.03
46722;BME280;32455;43.430;23.136;2023-03-05T14:13:21;97430.50;;;9.58;49.53
46722;BME280;32455;43.430;23.136;2023-03-05T14:16:24;97430.50;;;9.58;50.59
46722;BME280;32455;43.430;23.136;2023-03-05T14:19:33;97439.25;;;9.65;50.42
46722;BME280;32455;43.430;23.136;2023-03-05T14:22:33;97447.44;;;9.46;50.65
46722;BME280;32455;43.430;23.136;2023-03-05T14:28:26;97434.59;;;9.60;50.64
46722;BME280;32455;43.430;23.136;2023-03-05T14:31:13;97434.69;;;9.42;51.12
46722;BME280;32455;43.430;23.136;2023-03-05T14:34:04;97427.69;;;9.29;51.69
46722;BME280;32455;43.430;23.136;2023-03-05T14:36:53;97444.97;;;9.21;51.34
46722;BME280;32455;43.430;23.136;2023-03-05T14:39:48;97440.56;;;8.85;52.35
46722;BME280;32455;43.430;23.136;2023-03-05T14:45:42;97437.78;;;8.80;53.96
46722;BME280;32455;43.430;23.136;2023-03-05T14:48:29;97441.66;;;9.08;53.26
46722;BME280;32455;43.430;23.136;2023-03-05T14:51:14;97433.50;;;8.61;53.71
46722;BME280;32455;43.430;23.136;2023-03-05T14:53:59;97427.91;;;8.92;53.55
46722;BME280;32455;43.430;23.136;2023-03-05T14:56:45;97448.06;;;8.53;54.23
46722;BME280;32455;43.430;23.136;2023-03-05T14:59:30;97441.81;;;8.71;54.47
46722;BME280;32455;43.430;23.136;2023-03-05T15:02:21;97443.41;;;8.60;54.57
46722;BME280;32455;43.430;23.136;2023-03-05T15:05:07;97427.78;;;8.27;54.89
46722;BME280;32455;43.430;23.136;2023-03-05T15:07:53;97451.97;;;8.02;54.50
46722;BME280;32455;43.430;23.136;2023-03-05T15:10:39;97462.28;;;8.17;55.19
46722;BME280;32455;43.430;23.136;2023-03-05T15:13:25;97462.66;;;8.20;55.00
46722;BME280;32455;43.430;23.136;2023-03-05T15:16:14;97465.72;;;8.06;55.61
46722;BME280;32455;43.430;23.136;2023-03-05T15:19:00;97457.34;;;7.84;56.06
46722;BME280;32455;43.430;23.136;2023-03-05T15:21:47;97453.84;;;7.40;59.45
46722;BME280;32455;43.430;23.136;2023-03-05T15:24:33;97461.75;;;7.53;57.36
46722;BME280;32455;43.430;23.136;2023-03-05T15:27:18;97462.78;;;7.52;57.09
46722;BME280;32455;43.430;23.136;2023-03-05T15:30:05;97466.81;;;7.61;57.83
46722;BME280;32455;43.430;23.136;2023-03-05T15:32:52;97460.19;;;7.45;57.78
46722;BME280;32455;43.430;23.136;2023-03-05T15:35:38;97461.31;;;7.56;58.08
46722;BME280;32455;43.430;23.136;2023-03-05T15:38:24;97469.66;;;7.85;57.44
46722;BME280;32455;43.430;23.136;2023-03-05T15:41:09;97455.81;;;7.51;58.57
46722;BME280;32455;43.430;23.136;2023-03-05T15:43:55;97462.78;;;7.27;59.54
46722;BME280;32455;43.430;23.136;2023-03-05T15:46:40;97467.72;;;7.05;60.13